Time;durP1;ratioP1;P1;durP2;ratioP2;P2;SDS_P1;SDS_P2;PMS_P1;PMS_P2;Temp;Humidity;BMP_temperature;BMP_pressure;BME280_temperature;BME280_humidity;BME280_pressure;Samples;Min_cycle;Max_cycle;Signal;HPM_P1;HPM_P2
2023/07/21 02:59:51;;;;;;;;;;;30.60;75.90;;;;;;2620461;54;19992;-73
2023/07/21 03:02:37;;;;;;;;;;;18.60;99.90;;;;;;2619728;54;19944;-72
2023/07/21 03:05:22;;;;;;;;;;;18.40;99.90;;;;;;2621143;46;19953;-72
2023/07/21 03:08:06;;;;;;;;;;;18.40;99.90;;;;;;2620566;47;19946;-72
2023/07/21 03:10:51;;;;;;;;;;;18.40;99.90;;;;;;2622125;38;20785;-73
2023/07/21 03:13:36;;;;;;;;;;;18.30;99.90;;;;;;2622056;54;21666;-73
2023/07/21 03:16:21;;;;;;;;;;;18.30;99.90;;;;;;2621044;54;19951;-72
2023/07/21 03:19:05;;;;;;;;;;;18.20;99.90;;;;;;2620904;54;19950;-72
2023/07/21 03:21:50;;;;;;;;;;;18.20;99.90;;;;;;2620796;47;19954;-73
2023/07/21 03:24:39;;;;;;;;;;;18.30;99.90;;;;;;2621456;46;19946;-71
2023/07/21 03:27:24;;;;;;;;;;;18.30;99.90;;;;;;2618207;47;19985;-72
2023/07/21 03:30:09;;;;;;;;;;;18.30;99.90;;;;;;2619783;54;19954;-73
2023/07/21 03:32:54;;;;;;;;;;;18.40;99.90;;;;;;2620705;54;20046;-72
2023/07/21 03:35:39;;;;;;;;;;;18.40;99.90;;;;;;2619559;54;19947;-72
2023/07/21 03:38:23;;;;;;;;;;;18.40;99.90;;;;;;2619812;46;19951;-72
2023/07/21 03:41:08;;;;;;;;;;;18.40;99.90;;;;;;2621336;54;20460;-72
2023/07/21 03:43:53;;;;;;;;;;;18.40;99.90;;;;;;2620701;54;19938;-73
2023/07/21 03:46:37;;;;;;;;;;;18.30;99.90;;;;;;2622006;54;19962;-72
2023/07/21 03:49:22;;;;;;;;;;;18.30;99.90;;;;;;2623032;54;20038;-71
2023/07/21 03:52:07;;;;;;;;;;;18.30;99.90;;;;;;2624261;47;19946;-71
2023/07/21 03:54:51;;;;;;;;;;;18.30;99.90;;;;;;2621615;54;19938;-72
2023/07/21 03:57:36;;;;;;;;;;;18.30;99.90;;;;;;2620353;54;19947;-73
2023/07/21 04:00:21;;;;;;;;;;;18.30;99.90;;;;;;2620922;54;19952;-74
2023/07/21 04:03:06;;;;;;;;;;;18.30;99.90;;;;;;2621039;54;19939;-72
2023/07/21 04:05:50;;;;;;;;;;;18.30;99.90;;;;;;2618088;54;19969;-69
2023/07/21 04:08:35;;;;;;;;;;;18.30;99.90;;;;;;2620836;54;19946;-69
2023/07/21 04:11:20;;;;;;;;;;;18.30;99.90;;;;;;2615671;47;19939;-64
2023/07/21 04:14:05;;;;;;;;;;;18.30;99.90;;;;;;2615432;54;19953;-64
2023/07/21 04:16:49;;;;;;;;;;;18.30;99.90;;;;;;2616718;54;19951;-64
2023/07/21 04:19:34;;;;;;;;;;;18.40;99.90;;;;;;2614831;47;19953;-64
2023/07/21 04:22:19;;;;;;;;;;;18.40;99.90;;;;;;2615444;54;19958;-64
2023/07/21 04:25:04;;;;;;;;;;;18.50;99.90;;;;;;2615320;54;19951;-64
2023/07/21 04:27:50;;;;;;;;;;;18.30;99.90;;;;;;2615400;54;19947;-63
2023/07/21 04:30:35;;;;;;;;;;;18.30;99.90;;;;;;2617930;54;19950;-63
2023/07/21 04:33:20;;;;;;;;;;;18.30;99.90;;;;;;2616160;54;19954;-63
2023/07/21 04:36:04;;;;;;;;;;;18.30;99.90;;;;;;2615647;47;20803;-63
2023/07/21 04:38:49;;;;;;;;;;;18.30;99.90;;;;;;2615274;47;19946;-63
2023/07/21 04:41:34;;;;;;;;;;;18.30;99.90;;;;;;2616210;54;20459;-61
2023/07/21 04:44:19;;;;;;;;;;;18.30;99.90;;;;;;2615314;47;21088;-62
2023/07/21 04:47:05;;;;;;;;;;;18.40;99.90;;;;;;2614456;54;19955;-62
2023/07/21 04:49:50;;;;;;;;;;;18.40;99.90;;;;;;2614795;54;19946;-63
2023/07/21 04:52:36;;;;;;;;;;;18.40;99.90;;;;;;2615251;54;19951;-63
2023/07/21 04:55:22;;;;;;;;;;;18.40;99.90;;;;;;2615994;47;19958;-63
2023/07/21 04:58:08;;;;;;;;;;;18.30;99.90;;;;;;2618197;39;20340;-69
2023/07/21 05:00:54;;;;;;;;;;;18.30;99.90;;;;;;2618947;54;19946;-68
2023/07/21 05:03:39;;;;;;;;;;;18.30;99.90;;;;;;2618823;47;19986;-69
2023/07/21 05:06:24;;;;;;;;;;;18.20;99.90;;;;;;2622027;54;19947;-69
2023/07/21 05:09:09;;;;;;;;;;;18.20;99.90;;;;;;2619943;54;20837;-68
2023/07/21 05:11:54;;;;;;;;;;;18.20;99.90;;;;;;2617616;54;19965;-69
2023/07/21 05:14:39;;;;;;;;;;;18.20;99.90;;;;;;2616233;54;19958;-70
2023/07/21 05:17:24;;;;;;;;;;;18.10;99.90;;;;;;2617883;54;19943;-69
2023/07/21 05:20:11;;;;;;;;;;;18.10;99.90;;;;;;2616244;54;19938;-68
2023/07/21 05:22:55;;;;;;;;;;;18.10;99.90;;;;;;2617612;47;19939;-69
2023/07/21 05:25:41;;;;;;;;;;;18.10;99.90;;;;;;2617981;54;19939;-67
2023/07/21 05:28:26;;;;;;;;;;;18.20;99.90;;;;;;2616071;47;19950;-68
2023/07/21 05:31:11;;;;;;;;;;;18.20;99.90;;;;;;2616585;47;20006;-67
2023/07/21 05:33:56;;;;;;;;;;;18.30;99.90;;;;;;2614653;47;20006;-68
2023/07/21 05:36:41;;;;;;;;;;;18.40;99.90;;;;;;2616751;54;19947;-69
2023/07/21 05:39:25;;;;;;;;;;;18.40;99.90;;;;;;2614950;54;19950;-69
2023/07/21 05:42:10;;;;;;;;;;;18.40;99.90;;;;;;2622029;54;19956;-68
2023/07/21 05:44:55;;;;;;;;;;;18.40;99.90;;;;;;2616910;47;19957;-68
2023/07/21 05:47:39;;;;;;;;;;;18.40;99.90;;;;;;2616701;54;19947;-69
2023/07/21 05:50:24;;;;;;;;;;;18.40;99.90;;;;;;2617052;54;19958;-69
2023/07/21 05:53:09;;;;;;;;;;;18.40;99.90;;;;;;2615740;54;19947;-66
2023/07/21 05:55:54;;;;;;;;;;;18.30;99.90;;;;;;2615565;54;19958;-67
2023/07/21 05:58:39;;;;;;;;;;;18.30;99.90;;;;;;2615789;54;20064;-68
2023/07/21 06:01:24;;;;;;;;;;;18.30;99.90;;;;;;2615969;54;19946;-68
2023/07/21 06:04:09;;;;;;;;;;;18.40;99.90;;;;;;2613478;54;19946;-67
2023/07/21 06:06:55;;;;;;;;;;;18.40;99.90;;;;;;2615346;47;19951;-67
2023/07/21 06:09:39;;;;;;;;;;;18.50;99.90;;;;;;2615574;54;19953;-68
2023/07/21 06:12:24;;;;;;;;;;;18.60;99.90;;;;;;2616706;47;19950;-56
2023/07/21 06:15:09;;;;;;;;;;;18.60;99.90;;;;;;2615679;47;20029;-53
2023/07/21 06:17:54;;;;;;;;;;;18.60;99.90;;;;;;2615128;54;19946;-56
2023/07/21 06:20:38;;;;;;;;;;;18.60;99.90;;;;;;2615004;54;20420;-55
2023/07/21 06:23:23;;;;;;;;;;;18.70;99.90;;;;;;2613571;54;19966;-54
2023/07/21 06:26:10;;;;;;;;;;;18.80;99.90;;;;;;2605817;54;19958;-53
2023/07/21 06:28:56;;;;;;;;;;;18.90;99.90;;;;;;2607824;54;19969;-54
2023/07/21 06:31:41;;;;;;;;;;;19.00;99.90;;;;;;2607893;54;19958;-53
2023/07/21 06:34:26;;;;;;;;;;;19.00;99.90;;;;;;2608004;47;19951;-53
2023/07/21 06:37:10;;;;;;;;;;;19.10;99.90;;;;;;2607156;54;19973;-54
2023/07/21 06:39:55;;;;;;;;;;;19.20;99.90;;;;;;2607928;54;20506;-53
2023/07/21 06:42:43;;;;;;;;;;;19.20;99.90;;;;;;2609800;54;19947;-53
2023/07/21 06:45:28;;;;;;;;;;;19.30;99.90;;;;;;2607775;54;20050;-54
2023/07/21 06:48:13;;;;;;;;;;;19.40;99.90;;;;;;2608032;54;19954;-54
2023/07/21 06:50:59;;;;;;;;;;;19.50;99.90;;;;;;2607858;39;20429;-53
2023/07/21 06:53:43;;;;;;;;;;;19.50;99.90;;;;;;2608757;54;20335;-55
2023/07/21 06:56:28;;;;;;;;;;;19.60;99.90;;;;;;2610235;39;20384;-55
2023/07/21 06:59:13;;;;;;;;;;;19.60;99.90;;;;;;2609886;39;20695;-53
2023/07/21 07:01:57;;;;;;;;;;;19.70;99.90;;;;;;2609385;54;19958;-53
2023/07/21 07:04:42;;;;;;;;;;;19.80;99.90;;;;;;2609231;54;19946;-54
2023/07/21 07:07:27;;;;;;;;;;;19.90;99.90;;;;;;2610017;54;20007;-54
2023/07/21 07:10:13;;;;;;;;;;;20.00;99.90;;;;;;2609819;54;19946;-54
2023/07/21 07:12:57;;;;;;;;;;;20.10;99.90;;;;;;2620759;46;19958;-53
2023/07/21 07:15:42;;;;;;;;;;;20.20;99.90;;;;;;2612793;39;20348;-53
2023/07/21 07:18:27;;;;;;;;;;;20.40;99.90;;;;;;2612539;54;20510;-54
2023/07/21 07:21:12;;;;;;;;;;;20.40;99.90;;;;;;2614725;54;19950;-53
2023/07/21 07:23:57;;;;;;;;;;;20.40;99.90;;;;;;2609381;49;19989;-53
2023/07/21 07:26:42;;;;;;;;;;;20.40;99.90;;;;;;2607535;54;20506;-55
2023/07/21 07:29:27;;;;;;;;;;;20.40;99.90;;;;;;2608682;54;19957;-54
2023/07/21 07:32:11;;;;;;;;;;;20.50;99.90;;;;;;2609490;54;19955;-55
2023/07/21 07:34:56;;;;;;;;;;;20.60;99.90;;;;;;2612256;54;19950;-57
2023/07/21 07:37:42;;;;;;;;;;;20.60;99.90;;;;;;2609134;54;19998;-54
2023/07/21 07:40:27;;;;;;;;;;;20.70;99.90;;;;;;2609027;54;19947;-54
2023/07/21 07:43:12;;;;;;;;;;;20.70;99.90;;;;;;2609445;54;19947;-53
2023/07/21 07:45:56;;;;;;;;;;;20.80;99.90;;;;;;2610823;54;19953;-55
2023/07/21 07:48:42;;;;;;;;;;;20.80;99.90;;;;;;2611663;54;19946;-55
2023/07/21 07:51:27;;;;;;;;;;;20.70;99.90;;;;;;2610014;54;20316;-57
2023/07/21 07:54:14;;;;;;;;;;;20.70;99.90;;;;;;2610571;54;20452;-54
2023/07/21 07:56:59;;;;;;;;;;;20.80;99.90;;;;;;2610001;39;20694;-54
2023/07/21 07:59:44;;;;;;;;;;;20.90;99.90;;;;;;2610211;54;20266;-54
2023/07/21 08:02:28;;;;;;;;;;;20.90;99.90;;;;;;2609174;54;19957;-54
2023/07/21 08:05:13;;;;;;;;;;;21.00;99.90;;;;;;2610313;47;19950;-54
2023/07/21 08:08:01;;;;;;;;;;;21.00;99.90;;;;;;2610523;54;20475;-53
2023/07/21 08:10:46;;;;;;;;;;;21.10;99.90;;;;;;2610204;54;19978;-55
2023/07/21 08:13:31;;;;;;;;;;;21.10;99.90;;;;;;2609068;54;19953;-54
2023/07/21 08:16:16;;;;;;;;;;;21.10;99.90;;;;;;2609987;54;20042;-53
2023/07/21 08:19:01;;;;;;;;;;;21.20;99.90;;;;;;2609120;54;19973;-54
2023/07/21 08:21:47;;;;;;;;;;;21.30;99.90;;;;;;2611128;54;19951;-53
2023/07/21 08:24:33;;;;;;;;;;;21.40;99.90;;;;;;2610799;31;20617;-53
2023/07/21 08:27:20;;;;;;;;;;;21.40;99.90;;;;;;2610352;54;19953;-62
2023/07/21 08:30:08;;;;;;;;;;;21.50;99.90;;;;;;2607092;54;19981;-61
2023/07/21 08:32:56;;;;;;;;;;;21.40;99.90;;;;;;2610340;54;19950;-62
2023/07/21 08:35:41;;;;;;;;;;;21.50;99.90;;;;;;2621137;47;19947;-61
2023/07/21 08:38:26;;;;;;;;;;;21.60;99.90;;;;;;2615956;54;19958;-64
2023/07/21 08:41:11;;;;;;;;;;;21.60;99.90;;;;;;2610308;54;20053;-61
2023/07/21 08:43:56;;;;;;;;;;;21.70;99.90;;;;;;2608171;54;19954;-61
2023/07/21 08:46:40;;;;;;;;;;;21.80;99.90;;;;;;2605861;54;19954;-61
2023/07/21 08:49:25;;;;;;;;;;;21.90;99.90;;;;;;2614490;47;19997;-61
2023/07/21 08:52:10;;;;;;;;;;;21.90;99.90;;;;;;2616263;47;19947;-61
2023/07/21 08:54:55;;;;;;;;;;;21.90;99.90;;;;;;2616160;47;19946;-62
2023/07/21 08:57:40;;;;;;;;;;;21.80;99.90;;;;;;2617467;47;19955;-60
2023/07/21 09:00:25;;;;;;;;;;;21.80;99.90;;;;;;2615182;54;19946;-62
2023/07/21 09:03:09;;;;;;;;;;;21.70;99.90;;;;;;2616838;39;20468;-61
2023/07/21 09:05:56;;;;;;;;;;;21.70;99.90;;;;;;2616446;54;19947;-64
2023/07/21 09:08:41;;;;;;;;;;;21.70;99.90;;;;;;2614989;54;19974;-62
2023/07/21 09:11:26;;;;;;;;;;;21.70;99.90;;;;;;2616148;47;19938;-61
2023/07/21 09:14:10;;;;;;;;;;;21.80;99.90;;;;;;2615719;47;19947;-62
2023/07/21 09:16:55;;;;;;;;;;;21.90;99.90;;;;;;2615990;54;19941;-62
2023/07/21 09:19:40;;;;;;;;;;;21.90;99.90;;;;;;2613628;54;19950;-62
2023/07/21 09:22:24;;;;;;;;;;;21.90;99.90;;;;;;2615683;54;19958;-62
2023/07/21 09:25:09;;;;;;;;;;;22.00;99.90;;;;;;2616236;54;19953;-62
2023/07/21 09:27:54;;;;;;;;;;;21.90;99.90;;;;;;2611807;47;19939;-62
2023/07/21 09:30:39;;;;;;;;;;;21.90;99.90;;;;;;2615449;54;19947;-62
2023/07/21 09:33:23;;;;;;;;;;;21.80;99.90;;;;;;2614725;54;19950;-62
2023/07/21 09:36:08;;;;;;;;;;;21.90;99.90;;;;;;2614417;54;19958;-62
2023/07/21 09:38:53;;;;;;;;;;;21.90;99.90;;;;;;2615580;49;21811;-62
2023/07/21 09:41:37;;;;;;;;;;;22.00;99.90;;;;;;2615889;54;19946;-62
2023/07/21 09:44:25;;;;;;;;;;;22.00;99.90;;;;;;2612969;47;20070;-61
2023/07/21 09:47:10;;;;;;;;;;;21.90;99.90;;;;;;2617120;54;19951;-62
2023/07/21 09:49:55;;;;;;;;;;;22.00;99.90;;;;;;2616782;54;19950;-62
2023/07/21 09:52:40;;;;;;;;;;;22.00;99.90;;;;;;2614235;54;19939;-61
2023/07/21 09:55:25;;;;;;;;;;;22.00;99.90;;;;;;2614276;54;19947;-62
2023/07/21 09:58:09;;;;;;;;;;;22.10;99.90;;;;;;2619660;54;19927;-61
2023/07/21 10:00:54;;;;;;;;;;;22.20;99.90;;;;;;2625602;54;19938;-62
2023/07/21 10:03:39;;;;;;;;;;;22.30;99.90;;;;;;2619486;47;19994;-62
2023/07/21 10:06:25;;;;;;;;;;;22.30;99.90;;;;;;2617161;39;20355;-63
2023/07/21 10:09:11;;;;;;;;;;;22.30;99.90;;;;;;2621191;54;19947;-62
2023/07/21 10:11:56;;;;;;;;;;;22.40;99.90;;;;;;2619429;54;19946;-64
2023/07/21 10:14:41;;;;;;;;;;;22.40;99.90;;;;;;2617988;47;19973;-61
2023/07/21 10:17:25;;;;;;;;;;;22.30;99.90;;;;;;2616316;54;20702;-62
2023/07/21 10:20:11;;;;;;;;;;;22.30;99.90;;;;;;2616366;54;19953;-63
2023/07/21 10:22:56;;;;;;;;;;;22.30;99.90;;;;;;2617389;54;19993;-61
2023/07/21 10:25:41;;;;;;;;;;;22.40;99.90;;;;;;2617173;54;19946;-61
2023/07/21 10:28:25;;;;;;;;;;;22.40;99.90;;;;;;2616529;47;19954;-61
2023/07/21 10:31:10;;;;;;;;;;;22.30;99.90;;;;;;2618626;47;19953;-63
2023/07/21 10:33:55;;;;;;;;;;;22.30;99.90;;;;;;2617732;47;19950;-62
2023/07/21 10:36:40;;;;;;;;;;;21.80;99.90;;;;;;2616424;48;20510;-62
2023/07/21 10:39:24;;;;;;;;;;;22.40;99.90;;;;;;2616308;39;20366;-62
2023/07/21 10:42:09;;;;;;;;;;;22.50;99.90;;;;;;2615675;54;19946;-61
2023/07/21 10:44:54;;;;;;;;;;;22.40;99.90;;;;;;2615874;54;19997;-64
2023/07/21 10:47:39;;;;;;;;;;;22.30;99.90;;;;;;2616175;47;19981;-62
2023/07/21 10:50:24;;;;;;;;;;;22.40;99.90;;;;;;2615342;54;20053;-63
2023/07/21 10:53:09;;;;;;;;;;;22.50;99.90;;;;;;2616720;47;19958;-62
2023/07/21 10:56:00;;;;;;;;;;;22.60;99.90;;;;;;2616515;54;21014;-62
2023/07/21 10:58:45;;;;;;;;;;;22.70;99.90;;;;;;2615421;54;20022;-62
2023/07/21 11:01:31;;;;;;;;;;;22.70;99.90;;;;;;2615609;54;19946;-62
2023/07/21 11:04:16;;;;;;;;;;;22.70;99.90;;;;;;2615487;47;20466;-62
2023/07/21 11:07:01;;;;;;;;;;;22.70;99.90;;;;;;2614896;47;19962;-65
2023/07/21 11:09:47;;;;;;;;;;;22.70;99.90;;;;;;2616173;47;20203;-62
2023/07/21 11:12:32;;;;;;;;;;;22.80;99.90;;;;;;2615896;54;19956;-62
2023/07/21 11:15:17;;;;;;;;;;;22.90;99.90;;;;;;2615994;47;19953;-61
2023/07/21 11:18:02;;;;;;;;;;;23.00;99.90;;;;;;2610276;54;19955;-61
2023/07/21 11:20:34;;;;;;;;;;;23.00;99.90;;;;;;2611927;54;19957;-61
2023/07/21 11:23:04;;;;;;;;;;;23.00;99.90;;;;;;2611614;54;19950;-61
2023/07/21 11:25:34;;;;;;;;;;;23.00;99.90;;;;;;2617837;54;19969;-61
2023/07/21 11:28:05;;;;;;;;;;;23.10;99.90;;;;;;2615729;48;19953;-62
2023/07/21 11:30:35;;;;;;;;;;;23.10;99.90;;;;;;2611233;54;20552;-62
2023/07/21 11:33:14;;;;;;;;;;;23.10;99.90;;;;;;2609197;54;19957;-61
2023/07/21 11:35:51;;;;;;;;;;;23.10;99.90;;;;;;2609284;39;20387;-65
2023/07/21 11:38:21;;;;;;;;;;;23.10;99.90;;;;;;2609244;47;19950;-61
2023/07/21 11:40:52;;;;;;;;;;;23.10;99.90;;;;;;2609449;54;19973;-61
2023/07/21 11:43:22;;;;;;;;;;;22.90;99.90;;;;;;2610643;54;19951;-62
2023/07/21 11:45:52;;;;;;;;;;;22.90;99.90;;;;;;2620315;54;19965;-62
2023/07/21 11:48:22;;;;;;;;;;;22.80;99.90;;;;;;2622901;47;19955;-62
2023/07/21 11:50:55;;;;;;;;;;;22.80;99.90;;;;;;2619019;46;20615;-62
2023/07/21 11:53:26;;;;;;;;;;;22.70;99.90;;;;;;2615362;54;20038;-62
2023/07/21 11:55:56;;;;;;;;;;;22.70;99.90;;;;;;2615515;39;20355;-62
2023/07/21 11:58:26;;;;;;;;;;;22.60;99.90;;;;;;2613289;54;19947;-62
2023/07/21 12:00:56;;;;;;;;;;;22.60;99.90;;;;;;2614717;47;19961;-62
2023/07/21 12:03:26;;;;;;;;;;;22.50;99.90;;;;;;2615946;54;19954;-61
2023/07/21 12:05:59;;;;;;;;;;;22.50;99.90;;;;;;2614090;54;19970;-63
2023/07/21 12:08:29;;;;;;;;;;;22.50;99.90;;;;;;2614763;54;19953;-66
2023/07/21 12:10:59;;;;;;;;;;;22.50;99.90;;;;;;2614657;54;20479;-63
2023/07/21 12:13:29;;;;;;;;;;;22.40;99.90;;;;;;2614972;51;19947;-63
2023/07/21 12:15:58;;;;;;;;;;;22.40;99.90;;;;;;2616866;46;19956;-63
2023/07/21 12:18:28;;;;;;;;;;;22.40;99.90;;;;;;2614275;54;20065;-63
2023/07/21 12:21:00;;;;;;;;;;;22.30;99.90;;;;;;2616259;47;19946;-63
2023/07/21 12:23:30;;;;;;;;;;;22.20;99.90;;;;;;2616658;54;20007;-62
2023/07/21 12:26:00;;;;;;;;;;;22.00;99.90;;;;;;2615253;47;19958;-62
2023/07/21 12:28:29;;;;;;;;;;;22.70;99.90;;;;;;2616008;54;19950;-63
2023/07/21 12:30:59;;;;;;;;;;;22.10;99.90;;;;;;2616614;47;19947;-62
2023/07/21 12:33:29;;;;;;;;;;;22.00;99.90;;;;;;2616151;47;20037;-63
2023/07/21 12:36:03;;;;;;;;;;;22.00;99.90;;;;;;2616478;54;20003;-63
2023/07/21 12:38:32;;;;;;;;;;;22.00;99.90;;;;;;2614176;54;19946;-62
2023/07/21 12:41:02;;;;;;;;;;;22.00;99.90;;;;;;2614723;54;20020;-64
2023/07/21 12:43:33;;;;;;;;;;;22.00;99.90;;;;;;2616439;54;19977;-63
2023/07/21 12:46:03;;;;;;;;;;;22.00;99.90;;;;;;2616313;47;19952;-63
2023/07/21 12:48:33;;;;;;;;;;;22.00;99.90;;;;;;2617304;54;19954;-62
2023/07/21 12:51:06;;;;;;;;;;;22.00;99.90;;;;;;2623920;54;20023;-62
2023/07/21 12:53:35;;;;;;;;;;;21.90;99.90;;;;;;2626250;47;19968;-62
2023/07/21 12:56:05;;;;;;;;;;;21.80;99.90;;;;;;2618891;54;19957;-63
2023/07/21 12:58:35;;;;;;;;;;;21.70;99.90;;;;;;2615199;54;19950;-61
2023/07/21 13:01:05;;;;;;;;;;;21.50;99.90;;;;;;2615328;54;19935;-63
2023/07/21 13:03:35;;;;;;;;;;;21.50;99.90;;;;;;2617007;54;19947;-62
2023/07/21 13:06:08;;;;;;;;;;;21.40;99.90;;;;;;2617592;39;20363;-62
2023/07/21 13:08:38;;;;;;;;;;;21.40;99.90;;;;;;2615859;47;19946;-66
2023/07/21 13:11:07;;;;;;;;;;;21.40;99.90;;;;;;2616179;54;19950;-63
2023/07/21 13:13:37;;;;;;;;;;;21.40;99.90;;;;;;2616906;54;19961;-63
2023/07/21 13:16:07;;;;;;;;;;;21.40;99.90;;;;;;2615720;54;19951;-62
2023/07/21 13:18:36;;;;;;;;;;;21.40;99.90;;;;;;2615092;54;19946;-66
2023/07/21 13:21:09;;;;;;;;;;;21.40;99.90;;;;;;2616091;54;19950;-62
2023/07/21 13:23:38;;;;;;;;;;;21.40;99.90;;;;;;2616219;47;19947;-62
2023/07/21 13:26:08;;;;;;;;;;;21.30;99.90;;;;;;2615997;54;19954;-62
2023/07/21 13:28:38;;;;;;;;;;;21.30;99.90;;;;;;2615251;54;19946;-62
2023/07/21 13:31:07;;;;;;;;;;;21.40;99.90;;;;;;2615224;47;19953;-62
2023/07/21 13:33:37;;;;;;;;;;;21.40;99.90;;;;;;2616374;54;20065;-62
2023/07/21 13:36:10;;;;;;;;;;;21.40;99.90;;;;;;2618238;47;19953;-62
2023/07/21 13:38:39;;;;;;;;;;;21.40;99.90;;;;;;2618012;54;19950;-61
2023/07/21 13:41:09;;;;;;;;;;;21.40;99.90;;;;;;2616955;54;20037;-61
2023/07/21 13:43:39;;;;;;;;;;;21.30;99.90;;;;;;2616011;54;20045;-62
2023/07/21 13:46:09;;;;;;;;;;;21.30;99.90;;;;;;2614299;54;19946;-61
2023/07/21 13:48:39;;;;;;;;;;;21.30;99.90;;;;;;2615896;54;19962;-62
2023/07/21 13:51:11;;;;;;;;;;;21.30;99.90;;;;;;2616540;54;19997;-62
2023/07/21 13:53:41;;;;;;;;;;;21.30;99.90;;;;;;2616135;54;19974;-61
2023/07/21 13:56:11;;;;;;;;;;;21.30;99.90;;;;;;2615977;54;19954;-61
2023/07/21 13:58:41;;;;;;;;;;;21.40;99.90;;;;;;2614729;54;19951;-62
2023/07/21 14:01:11;;;;;;;;;;;21.30;99.90;;;;;;2616267;54;19976;-62
2023/07/21 14:03:42;;;;;;;;;;;21.30;99.90;;;;;;2616393;54;20002;-63
2023/07/21 14:06:15;;;;;;;;;;;21.20;99.90;;;;;;2615449;54;19951;-62
2023/07/21 14:08:44;;;;;;;;;;;21.20;99.90;;;;;;2614692;54;19946;-63
2023/07/21 14:11:14;;;;;;;;;;;21.10;99.90;;;;;;2616086;54;19946;-62
2023/07/21 14:13:44;;;;;;;;;;;21.00;99.90;;;;;;2615786;54;19946;-62
2023/07/21 14:16:14;;;;;;;;;;;21.00;99.90;;;;;;2616356;39;21472;-63
2023/07/21 14:18:43;;;;;;;;;;;20.90;99.90;;;;;;2619389;47;19953;-62
2023/07/21 14:21:15;;;;;;;;;;;21.00;99.90;;;;;;2626603;54;19935;-63
2023/07/21 14:23:45;;;;;;;;;;;21.10;99.90;;;;;;2620899;54;20046;-62
2023/07/21 14:26:15;;;;;;;;;;;21.30;99.90;;;;;;2617302;47;19947;-62
2023/07/21 14:28:44;;;;;;;;;;;21.30;99.90;;;;;;2616236;54;19958;-62
2023/07/21 14:31:14;;;;;;;;;;;21.20;99.90;;;;;;2615220;47;19950;-63
2023/07/21 14:33:43;;;;;;;;;;;21.30;99.90;;;;;;2615851;47;19978;-62
2023/07/21 14:36:16;;;;;;;;;;;21.20;99.90;;;;;;2616334;47;19950;-62
2023/07/21 14:38:51;;;;;;;;;;;21.20;99.90;;;;;;2614749;54;19966;-61
2023/07/21 14:41:20;;;;;;;;;;;21.20;99.90;;;;;;2616178;54;19934;-61
2023/07/21 14:43:50;;;;;;;;;;;21.30;99.90;;;;;;2615965;54;19946;-61
2023/07/21 14:46:20;;;;;;;;;;;21.30;99.90;;;;;;2615743;50;19954;-61
2023/07/21 14:48:50;;;;;;;;;;;21.40;99.90;;;;;;2614672;54;19957;-61
2023/07/21 14:51:22;;;;;;;;;;;21.50;99.90;;;;;;2615890;54;21022;-62
2023/07/21 14:53:52;;;;;;;;;;;21.50;99.90;;;;;;2615193;47;19950;-61
2023/07/21 14:56:22;;;;;;;;;;;21.60;99.90;;;;;;2615600;39;21816;-52
2023/07/21 14:58:52;;;;;;;;;;;21.70;99.90;;;;;;2614082;54;20443;-53
2023/07/21 15:01:22;;;;;;;;;;;21.90;99.90;;;;;;2614644;54;19947;-53
2023/07/21 15:03:52;;;;;;;;;;;22.20;99.90;;;;;;2614564;54;20568;-55
2023/07/21 15:06:25;;;;;;;;;;;22.60;99.90;;;;;;2615923;39;20371;-53
2023/07/21 15:08:55;;;;;;;;;;;23.00;99.90;;;;;;2615521;47;19946;-54
2023/07/21 15:11:25;;;;;;;;;;;23.10;99.90;;;;;;2614117;47;19974;-53
2023/07/21 15:13:55;;;;;;;;;;;23.50;99.90;;;;;;2614960;47;19967;-53
2023/07/21 15:16:24;;;;;;;;;;;23.70;99.90;;;;;;2615987;54;19969;-54
2023/07/21 15:18:54;;;;;;;;;;;23.90;99.90;;;;;;2615132;47;20062;-54
2023/07/21 15:21:27;;;;;;;;;;;24.20;99.90;;;;;;2614706;54;19947;-54
2023/07/21 15:23:56;;;;;;;;;;;24.40;99.90;;;;;;2614864;47;19954;-54
2023/07/21 15:26:27;;;;;;;;;;;24.60;99.90;;;;;;2616711;39;20364;-54
2023/07/21 15:28:57;;;;;;;;;;;24.80;99.90;;;;;;2616390;47;19953;-52
2023/07/21 15:31:27;;;;;;;;;;;25.00;99.90;;;;;;2616679;39;20355;-53
2023/07/21 15:33:56;;;;;;;;;;;25.20;99.90;;;;;;2615803;54;19951;-53
2023/07/21 15:36:29;;;;;;;;;;;25.30;99.90;;;;;;2615730;54;19950;-54
2023/07/21 15:39:01;;;;;;;;;;;25.40;99.90;;;;;;2614280;54;20038;-53
2023/07/21 15:41:30;;;;;;;;;;;25.50;99.90;;;;;;2614910;54;19946;-54
2023/07/21 15:44:00;;;;;;;;;;;25.60;99.90;;;;;;2615408;54;19946;-54
2023/07/21 15:46:29;;;;;;;;;;;25.70;99.90;;;;;;2617988;54;19950;-54
2023/07/21 15:48:59;;;;;;;;;;;25.80;99.90;;;;;;2623171;54;19947;-53
2023/07/21 15:51:31;;;;;;;;;;;25.80;99.90;;;;;;2622133;54;19946;-56
2023/07/21 15:54:01;;;;;;;;;;;26.00;99.90;;;;;;2621306;54;19993;-55
2023/07/21 15:56:45;;;;;;;;;;;26.00;99.90;;;;;;2615228;54;20038;-55
2023/07/21 15:59:14;;;;;;;;;;;25.90;99.90;;;;;;2616136;47;19969;-54
2023/07/21 16:01:46;;;;;;;;;;;25.90;99.90;;;;;;2614910;54;20022;-54
2023/07/21 16:04:16;;;;;;;;;;;25.90;99.90;;;;;;2615634;46;20085;-54
2023/07/21 16:06:48;;;;;;;;;;;25.90;99.90;;;;;;2616547;47;19954;-54
2023/07/21 16:09:18;;;;;;;;;;;25.80;99.90;;;;;;2613628;54;19946;-55
2023/07/21 16:11:47;;;;;;;;;;;25.70;99.90;;;;;;2615931;54;19951;-54
2023/07/21 16:14:19;;;;;;;;;;;25.60;99.90;;;;;;2616486;47;19950;-54
2023/07/21 16:16:49;;;;;;;;;;;25.50;99.90;;;;;;2615122;54;20456;-55
2023/07/21 16:19:18;;;;;;;;;;;25.40;99.90;;;;;;2614295;54;19946;-54
2023/07/21 16:21:51;;;;;;;;;;;25.40;99.90;;;;;;2612732;54;19962;-54
2023/07/21 16:24:20;;;;;;;;;;;25.50;99.90;;;;;;2607618;47;19946;-54
2023/07/21 16:26:50;;;;;;;;;;;25.50;99.90;;;;;;2609303;54;19997;-53
2023/07/21 16:29:20;;;;;;;;;;;25.60;99.90;;;;;;2609006;54;19946;-53
2023/07/21 16:31:50;;;;;;;;;;;25.80;99.90;;;;;;2609385;47;20725;-55
2023/07/21 16:34:19;;;;;;;;;;;26.00;99.90;;;;;;2609085;54;20415;-53
2023/07/21 16:36:54;;;;;;;;;;;26.10;99.90;;;;;;2609215;54;20467;-53
2023/07/21 16:39:24;;;;;;;;;;;26.20;99.90;;;;;;2609116;54;20448;-53
2023/07/21 16:41:53;;;;;;;;;;;26.30;99.90;;;;;;2609135;39;20486;-53
2023/07/21 16:44:23;;;;;;;;;;;26.40;99.90;;;;;;2607604;54;20439;-53
2023/07/21 16:46:53;;;;;;;;;;;26.40;99.90;;;;;;2617121;47;19946;-53
2023/07/21 16:49:24;;;;;;;;;;;26.60;99.90;;;;;;2615269;47;19946;-53
2023/07/21 16:51:56;;;;;;;;;;;26.70;99.90;;;;;;2607914;54;19958;-53
2023/07/21 16:54:28;;;;;;;;;;;26.80;99.90;;;;;;2606903;54;19977;-54
2023/07/21 16:56:58;;;;;;;;;;;26.80;99.90;;;;;;2607435;47;19951;-53
2023/07/21 16:59:28;;;;;;;;;;;26.70;99.90;;;;;;2606164;47;20530;-54
2023/07/21 17:02:02;;;;;;;;;;;26.50;99.90;;;;;;2607755;54;20006;-54
2023/07/21 17:04:32;;;;;;;;;;;26.20;99.90;;;;;;2606803;47;20026;-53
2023/07/21 17:07:05;;;;;;;;;;;26.00;99.90;;;;;;2608605;54;19951;-53
2023/07/21 17:09:34;;;;;;;;;;;25.80;99.90;;;;;;2614362;54;19954;-53
2023/07/21 17:12:04;;;;;;;;;;;25.60;99.90;;;;;;2612509;47;19957;-55
2023/07/21 17:14:34;;;;;;;;;;;25.50;99.90;;;;;;2610543;54;19954;-53
2023/07/21 17:17:03;;;;;;;;;;;25.20;99.90;;;;;;2607829;54;20057;-53
2023/07/21 17:19:34;;;;;;;;;;;25.00;99.90;;;;;;2606634;54;19953;-55
2023/07/21 17:22:07;;;;;;;;;;;24.80;99.90;;;;;;2607296;54;19950;-55
2023/07/21 17:24:38;;;;;;;;;;;24.70;99.90;;;;;;2607559;54;19950;-55
2023/07/21 17:27:08;;;;;;;;;;;24.50;99.90;;;;;;2607583;54;20486;-53
2023/07/21 17:29:37;;;;;;;;;;;24.50;99.90;;;;;;2606628;47;19958;-54
2023/07/21 17:32:08;;;;;;;;;;;24.30;99.90;;;;;;2607691;54;20018;-54
2023/07/21 17:34:37;;;;;;;;;;;24.20;99.90;;;;;;2606163;54;20061;-53
2023/07/21 17:37:10;;;;;;;;;;;24.10;99.90;;;;;;2606041;54;19950;-54
2023/07/21 17:39:40;;;;;;;;;;;23.80;99.90;;;;;;2606952;54;19946;-63
2023/07/21 17:42:10;;;;;;;;;;;23.60;99.90;;;;;;2607140;47;20890;-63
2023/07/21 17:44:40;;;;;;;;;;;23.50;99.90;;;;;;2605913;54;19954;-63
2023/07/21 17:47:10;;;;;;;;;;;23.60;99.90;;;;;;2605580;46;19950;-62
2023/07/21 17:49:40;;;;;;;;;;;23.40;99.90;;;;;;2606597;54;19946;-63
2023/07/21 17:52:12;;;;;;;;;;;23.40;99.90;;;;;;2608302;47;19962;-63
2023/07/21 17:54:42;;;;;;;;;;;23.40;99.90;;;;;;2611673;47;19972;-63
2023/07/21 17:57:12;;;;;;;;;;;23.20;99.90;;;;;;2611334;54;19954;-64
2023/07/21 17:59:42;;;;;;;;;;;22.90;99.90;;;;;;2608274;54;19951;-62
2023/07/21 18:02:12;;;;;;;;;;;22.60;99.90;;;;;;2605959;54;19953;-63
2023/07/21 18:04:41;;;;;;;;;;;22.40;99.90;;;;;;2606142;47;19947;-62
2023/07/21 18:07:14;;;;;;;;;;;22.20;99.90;;;;;;2607710;54;19951;-62
2023/07/21 18:09:43;;;;;;;;;;;22.00;99.90;;;;;;2607644;54;19970;-63
2023/07/21 18:12:13;;;;;;;;;;;21.80;99.90;;;;;;2606722;47;20475;-63
2023/07/21 18:14:43;;;;;;;;;;;21.70;99.90;;;;;;2607083;47;19947;-63
2023/07/21 18:17:12;;;;;;;;;;;21.60;99.90;;;;;;2606688;54;19946;-62